Time;durP1;ratioP1;P1;durP2;ratioP2;P2;SDS_P1;SDS_P2;PMS_P1;PMS_P2;Temp;Humidity;BMP_temperature;BMP_pressure;BME280_temperature;BME280_humidity;BME280_pressure;Samples;Min_cycle;Max_cycle;Signal;HPM_P1;HPM_P2
2023/02/14 00:00:55;;;;;;;0.68;0.68;;;;;;;-140.05;100.00;61859.38;5070863;28;20219;-66
2023/02/14 00:03:23;;;;;;;0.17;0.17;;;;;;;-140.05;100.00;61859.38;5069875;28;20227;-66
2023/02/14 00:05:49;;;;;;;1.40;1.30;;;;;;;-140.05;100.00;61859.38;5069079;28;20200;-62
2023/02/14 00:08:16;;;;;;;1.95;1.85;;;;;;;-140.05;100.00;61859.38;5070127;28;20287;-68
2023/02/14 00:10:43;;;;;;;1.00;0.95;;;;;;;-140.05;100.00;61859.38;5069892;28;20223;-62
2023/02/14 00:13:10;;;;;;;1.30;0.52;;;;;;;-140.05;100.00;61859.38;5069912;28;20208;-69
2023/02/14 00:15:37;;;;;;;0.98;0.63;;;;;;;-140.05;100.00;61859.38;5068934;28;20227;-69
2023/02/14 00:18:05;;;;;;;0.00;0.00;;;;;;;-140.05;100.00;61859.38;5069641;28;20198;-66
2023/02/14 00:20:32;;;;;;;0.10;0.10;;;;;;;-140.05;100.00;61859.38;5069339;28;20188;-66
2023/02/14 00:22:59;;;;;;;0.52;0.52;;;;;;;-140.05;100.00;61859.38;5069316;28;20207;-68
2023/02/14 00:25:26;;;;;;;0.55;0.55;;;;;;;-140.05;100.00;61859.38;5069089;28;20730;-65
2023/02/14 00:27:54;;;;;;;1.90;1.75;;;;;;;-140.05;100.00;61859.38;5069860;28;20196;-65
2023/02/14 00:30:21;;;;;;;1.20;1.17;;;;;;;-140.05;100.00;61859.38;5069113;28;20192;-63
2023/02/14 00:32:48;;;;;;;0.32;0.32;;;;;;;-140.05;100.00;61859.38;5071839;28;20210;-67
2023/02/14 00:35:16;;;;;;;0.00;0.00;;;;;;;-140.05;100.00;61859.38;5070339;28;20765;-64
2023/02/14 00:37:44;;;;;;;0.70;0.70;;;;;;;-140.05;100.00;61859.38;5051270;28;20630;-64
2023/02/14 00:40:12;;;;;;;0.22;0.22;;;;;;;-140.05;100.00;61859.38;5068966;28;20195;-64
2023/02/14 00:42:38;;;;;;;0.13;0.13;;;;;;;-140.05;100.00;61859.38;5069362;28;20224;-63
2023/02/14 00:45:06;;;;;;;0.50;0.50;;;;;;;-140.05;100.00;61859.38;5067548;28;20618;-66
2023/02/14 00:47:34;;;;;;;0.20;0.20;;;;;;;-140.05;100.00;61859.38;5069417;28;20552;-65
2023/02/14 00:50:03;;;;;;;0.30;0.30;;;;;;;-140.05;100.00;61859.38;5068930;28;20253;-69
2023/02/14 00:52:30;;;;;;;3.03;1.85;;;;;;;-140.05;100.00;61859.38;5069602;28;20275;-66
2023/02/14 00:54:57;;;;;;;0.85;0.85;;;;;;;-140.05;100.00;61859.38;5069059;28;20203;-65
2023/02/14 00:57:24;;;;;;;0.20;0.20;;;;;;;-140.05;100.00;61859.38;5068996;28;20196;-67
2023/02/14 00:59:51;;;;;;;0.20;0.20;;;;;;;-140.05;100.00;61859.38;5072932;28;20219;-66
2023/02/14 01:02:20;;;;;;;0.52;0.52;;;;;;;-140.05;100.00;61859.38;5068967;28;20223;-69
2023/02/14 01:04:47;;;;;;;3.10;0.45;;;;;;;-140.05;100.00;61859.38;5068894;28;20220;-66
2023/02/14 01:07:14;;;;;;;0.45;0.45;;;;;;;-140.05;100.00;61859.38;5068420;28;20250;-66
2023/02/14 01:09:41;;;;;;;0.50;0.45;;;;;;;-140.05;100.00;61859.38;5072292;28;20651;-66
2023/02/14 01:12:08;;;;;;;0.10;0.10;;;;;;;-140.05;100.00;61859.38;5079859;28;20689;-68
2023/02/14 01:14:35;;;;;;;0.38;0.38;;;;;;;-140.05;100.00;61859.38;5078132;28;20196;-69
2023/02/14 01:17:01;;;;;;;0.95;0.80;;;;;;;-140.05;100.00;61859.38;5072244;28;20258;-64
2023/02/14 01:19:28;;;;;;;0.95;0.43;;;;;;;-140.05;100.00;61859.38;5073062;28;20232;-65
2023/02/14 01:21:55;;;;;;;0.05;0.05;;;;;;;-140.05;100.00;61859.38;5070691;28;20228;-67
2023/02/14 01:24:23;;;;;;;1.25;0.73;;;;;;;-140.05;100.00;61859.38;5075989;28;20692;-63
2023/02/14 01:26:50;;;;;;;1.45;1.35;;;;;;;-140.05;100.00;61859.38;5071504;28;20192;-65
2023/02/14 01:29:17;;;;;;;2.55;2.38;;;;;;;-140.05;100.00;61859.38;5072323;28;20299;-65
2023/02/14 01:31:47;;;;;;;1.05;1.05;;;;;;;-140.05;100.00;61859.38;5071468;28;20208;-63
2023/02/14 01:34:14;;;;;;;0.00;0.00;;;;;;;-140.05;100.00;61859.38;5072557;28;20198;-65
2023/02/14 01:36:41;;;;;;;3.88;1.50;;;;;;;-140.05;100.00;61859.38;5064350;28;20188;-62
2023/02/14 01:39:12;;;;;;;2.15;0.75;;;;;;;-140.05;100.00;61859.38;5079241;28;20249;-63
2023/02/14 01:41:41;;;;;;;1.85;1.42;;;;;;;-140.05;100.00;61859.38;5071371;28;20257;-64
2023/02/14 01:44:15;;;;;;;0.10;0.10;;;;;;;-140.05;100.00;61859.38;5053983;28;20206;-68
2023/02/14 01:46:44;;;;;;;0.68;0.55;;;;;;;-140.05;100.00;61859.38;5072607;28;20630;-69
2023/02/14 01:49:20;;;;;;;1.75;1.30;;;;;;;-140.05;100.00;61859.38;5072492;28;20207;-64
2023/02/14 01:52:10;;;;;;;0.82;0.82;;;;;;;-140.05;100.00;61859.38;5071685;28;20219;-64
2023/02/14 01:54:43;;;;;;;0.13;0.13;;;;;;;-140.05;100.00;61859.38;5071359;28;20208;-67
2023/02/14 01:57:14;;;;;;;0.00;0.00;;;;;;;-140.05;100.00;61859.38;5053469;28;20290;-64
2023/02/14 01:59:51;;;;;;;0.20;0.20;;;;;;;-140.05;100.00;61859.38;5070437;28;20199;-65
2023/02/14 02:02:22;;;;;;;0.85;0.85;;;;;;;-140.05;100.00;61859.38;5053112;28;20227;-64
2023/02/14 02:04:54;;;;;;;0.70;0.55;;;;;;;-140.05;100.00;61859.38;5070464;28;20299;-67
2023/02/14 02:07:26;;;;;;;0.22;0.22;;;;;;;-140.05;100.00;61859.38;5076688;28;20207;-65
2023/02/14 02:09:59;;;;;;;0.32;0.32;;;;;;;-140.05;100.00;61859.38;5069875;28;20200;-63
2023/02/14 02:12:27;;;;;;;0.85;0.85;;;;;;;-140.05;100.00;61859.38;5071724;28;20230;-64
2023/02/14 02:14:58;;;;;;;0.43;0.43;;;;;;;-140.05;100.00;61859.38;5053387;28;20289;-64
2023/02/14 02:17:34;;;;;;;1.70;1.20;;;;;;;-140.05;100.00;61859.38;5084413;28;20216;-67
2023/02/14 02:20:38;;;;;;;0.03;0.03;;;;;;;-140.05;100.00;61859.38;5070710;28;20192;-66
2023/02/14 02:23:42;;;;;;;0.10;0.10;;;;;;;-140.05;100.00;61859.38;5070602;28;20302;-66
2023/02/14 02:26:39;;;;;;;0.57;0.57;;;;;;;-140.05;100.00;61859.38;5071998;28;20206;-68
2023/02/14 02:29:14;;;;;;;0.57;0.57;;;;;;;-140.05;100.00;61859.38;5070016;28;20218;-63
2023/02/14 02:32:04;;;;;;;0.52;0.52;;;;;;;-140.05;100.00;61859.38;5070989;28;20276;-67
2023/02/14 02:34:54;;;;;;;0.32;0.28;;;;;;;-140.05;100.00;61859.38;5053749;28;20298;-67
2023/02/14 02:37:24;;;;;;;0.00;0.00;;;;;;;-140.05;100.00;61859.38;5052218;28;20232;-67
2023/02/14 02:40:09;;;;;;;0.82;0.82;;;;;;;-140.05;100.00;61859.38;5071041;28;20204;-67
2023/02/14 02:42:54;;;;;;;0.52;0.52;;;;;;;-140.05;100.00;61859.38;5065057;28;20223;-63
2023/02/14 02:45:34;;;;;;;1.05;0.95;;;;;;;-140.05;100.00;61859.38;5060860;28;20698;-65
2023/02/14 02:48:14;;;;;;;0.75;0.65;;;;;;;-140.05;100.00;61859.38;5055773;28;20206;-64
2023/02/14 02:54:03;;;;;;;0.47;0.45;;;;;;;-140.05;100.00;61859.38;5052612;28;20208;-67
2023/02/14 02:56:45;;;;;;;0.95;0.65;;;;;;;-140.05;100.00;61859.38;5059301;28;20203;-63
2023/02/14 02:59:17;;;;;;;4.30;2.47;;;;;;;-140.05;100.00;61859.38;5074572;28;20184;-67
2023/02/14 03:02:14;;;;;;;0.10;0.10;;;;;;;-140.05;100.00;61859.38;5068298;28;20211;-65
2023/02/14 03:04:51;;;;;;;1.00;0.40;;;;;;;-140.05;100.00;61859.38;5050998;28;20199;-65
2023/02/14 03:07:33;;;;;;;5.55;1.05;;;;;;;-140.05;100.00;61859.38;5051893;28;20333;-67
2023/02/14 03:10:16;;;;;;;0.03;0.03;;;;;;;-140.05;100.00;61859.38;5069964;28;20691;-65
2023/02/14 03:13:09;;;;;;;0.20;0.20;;;;;;;-140.05;100.00;61859.38;5052612;28;20203;-68
2023/02/14 03:15:44;;;;;;;0.32;0.25;;;;;;;-140.05;100.00;61859.38;5051665;28;20224;-66
2023/02/14 03:18:44;;;;;;;1.70;1.17;;;;;;;-140.05;100.00;61859.38;5070212;28;20282;-66
2023/02/14 03:21:22;;;;;;;2.17;0.60;;;;;;;-140.05;100.00;61859.38;5060862;28;20636;-64
2023/02/14 03:24:16;;;;;;;0.68;0.65;;;;;;;-140.05;100.00;61859.38;5051811;28;20223;-68
2023/02/14 03:26:58;;;;;;;9.05;3.60;;;;;;;-140.05;100.00;61859.38;5051785;28;20206;-63
2023/02/14 03:29:27;;;;;;;0.30;0.30;;;;;;;-140.05;100.00;61859.38;5069840;28;20192;-67
2023/02/14 03:32:40;;;;;;;0.20;0.20;;;;;;;-140.05;100.00;61859.38;5067306;28;20204;-66
2023/02/14 03:35:39;;;;;;;0.20;0.20;;;;;;;-140.05;100.00;61859.38;5069116;28;20208;-65
2023/02/14 03:38:18;;;;;;;0.55;0.52;;;;;;;-140.05;100.00;61859.38;5065271;28;20668;-66
2023/02/14 03:40:53;;;;;;;0.38;0.38;;;;;;;-140.05;100.00;61859.38;5069597;28;20333;-65
2023/02/14 03:43:31;;;;;;;3.60;0.95;;;;;;;-140.05;100.00;61859.38;5069736;28;20827;-67
2023/02/14 03:46:09;;;;;;;0.85;0.50;;;;;;;-140.05;100.00;61859.38;5068142;28;20703;-67
2023/02/14 03:48:39;;;;;;;4.72;4.32;;;;;;;-140.05;100.00;61859.38;5069880;28;20204;-62
2023/02/14 03:51:10;;;;;;;2.30;1.92;;;;;;;-140.05;100.00;61859.38;5070342;28;20204;-64
2023/02/14 03:53:42;;;;;;;1.55;1.45;;;;;;;-140.05;100.00;61859.38;5070087;28;20567;-63
2023/02/14 03:56:16;;;;;;;4.03;0.52;;;;;;;-140.05;100.00;61859.38;5070010;28;20192;-64
2023/02/14 03:58:49;;;;;;;0.63;0.63;;;;;;;-140.05;100.00;61859.38;5068236;28;20188;-63
2023/02/14 04:01:24;;;;;;;0.40;0.40;;;;;;;-140.05;100.00;61859.38;5058797;28;20289;-65
2023/02/14 04:03:54;;;;;;;0.20;0.20;;;;;;;-140.05;100.00;61859.38;5066910;28;20199;-65
2023/02/14 04:06:22;;;;;;;0.73;0.73;;;;;;;-140.05;100.00;61859.38;5069468;28;20207;-68
2023/02/14 04:08:48;;;;;;;11.25;0.85;;;;;;;-140.05;100.00;61859.38;5069811;28;20261;-65
2023/02/14 04:11:15;;;;;;;1.15;1.08;;;;;;;-140.05;100.00;61859.38;5069118;28;20198;-65
2023/02/14 04:13:42;;;;;;;0.45;0.45;;;;;;;-140.05;100.00;61859.38;5069211;28;20200;-67
2023/02/14 04:16:09;;;;;;;0.10;0.10;;;;;;;-140.05;100.00;61859.38;5070088;28;20239;-65
2023/02/14 04:21:21;;;;;;;0.40;0.40;;;;;;;-140.05;100.00;61859.38;5069665;28;20198;-67
2023/02/14 04:23:48;;;;;;;0.57;0.57;;;;;;;-140.05;100.00;61859.38;5070301;28;20223;-65
2023/02/14 04:26:15;;;;;;;0.77;0.77;;;;;;;-140.05;100.00;61859.38;5068963;28;20192;-63
2023/02/14 04:28:42;;;;;;;1.40;1.33;;;;;;;-140.05;100.00;61859.38;5068433;28;20667;-66
2023/02/14 04:31:10;;;;;;;0.10;0.10;;;;;;;-140.05;100.00;61859.38;5068163;28;20653;-66
2023/02/14 04:36:36;;;;;;;0.10;0.10;;;;;;;-140.05;100.00;61859.38;5069118;28;20204;-67
2023/02/14 04:39:06;;;;;;;1.60;1.50;;;;;;;-140.05;100.00;61859.38;5070125;28;20689;-64
2023/02/14 04:41:34;;;;;;;0.00;0.00;;;;;;;-140.05;100.00;61859.38;5069459;28;20710;-67
2023/02/14 04:44:25;;;;;;;0.80;0.80;;;;;;;-140.05;100.00;61859.38;5073096;28;20692;-66
2023/02/14 04:46:54;;;;;;;0.68;0.68;;;;;;;-140.05;100.00;61859.38;5072944;28;20183;-62
2023/02/14 04:49:22;;;;;;;0.10;0.10;;;;;;;-140.05;100.00;61859.38;5070866;28;20241;-67
2023/02/14 04:51:56;;;;;;;0.63;0.63;;;;;;;-140.05;100.00;61859.38;5071717;28;20206;-65
2023/02/14 04:54:27;;;;;;;37.13;1.50;;;;;;;-140.05;100.00;61859.38;5080129;28;20191;-64
2023/02/14 04:56:55;;;;;;;1.85;1.17;;;;;;;-140.05;100.00;61859.38;5078140;28;20208;-65
2023/02/14 04:59:24;;;;;;;0.68;0.68;;;;;;;-140.05;100.00;61859.38;5073090;28;20219;-65
2023/02/14 05:19:22;;;;;;;1.25;0.90;;;;;;;6.09;43.67;96330.19;5068633;27;20541;-65
2023/02/14 05:21:49;;;;;;;0.32;0.32;;;;;;;6.21;43.13;96317.41;5067025;28;20303;-61
2023/02/14 05:24:17;;;;;;;0.03;0.03;;;;;;;6.03;43.37;96315.34;5066852;28;20207;-65
2023/02/14 05:26:44;;;;;;;0.00;0.00;;;;;;;6.12;43.35;96311.56;5070480;28;20200;-67
2023/02/14 05:29:10;;;;;;;0.10;0.10;;;;;;;6.33;42.79;96332.31;5066645;28;20231;-65
2023/02/14 05:31:37;;;;;;;0.00;0.00;;;;;;;6.21;43.68;96333.03;5066126;28;20204;-64
2023/02/14 05:34:04;;;;;;;1.05;0.90;;;;;;;6.15;43.00;96334.59;5066866;28;20254;-64
2023/02/14 05:36:31;;;;;;;0.75;0.75;;;;;;;6.36;42.80;96329.31;5067517;28;20196;-64
2023/02/14 05:38:58;;;;;;;0.15;0.15;;;;;;;6.32;42.93;96328.09;5068180;28;20265;-62
2023/02/14 05:41:25;;;;;;;0.52;0.52;;;;;;;6.28;42.87;96321.66;5065798;28;20275;-65
2023/02/14 05:43:51;;;;;;;0.90;0.47;;;;;;;6.26;43.55;96320.25;5066193;28;20198;-63
2023/02/14 05:46:18;;;;;;;0.65;0.65;;;;;;;6.47;42.61;96318.34;5065732;28;20204;-66
2023/02/14 05:48:45;;;;;;;0.00;0.00;;;;;;;6.49;43.19;96311.13;5066013;28;20723;-65
2023/02/14 05:51:12;;;;;;;0.25;0.25;;;;;;;6.45;42.70;96325.53;5066720;28;20736;-60
2023/02/14 05:53:39;;;;;;;0.88;0.32;;;;;;;6.07;43.71;96327.78;5067084;28;20706;-67
2023/02/14 05:56:06;;;;;;;0.10;0.10;;;;;;;6.45;44.88;96315.13;5066571;28;20265;-68
2023/02/14 05:58:33;;;;;;;0.45;0.45;;;;;;;6.54;43.15;96298.31;5066171;28;20263;-74
2023/02/14 06:00:59;;;;;;;1.13;0.95;;;;;;;7.10;43.21;96320.47;5066029;28;20626;-68
2023/02/14 06:03:27;;;;;;;0.63;0.63;;;;;;;7.04;41.92;96325.69;5066660;28;20840;-66
2023/02/14 06:05:54;;;;;;;0.00;0.00;;;;;;;6.81;42.09;96328.66;5066377;28;20212;-68
2023/02/14 06:08:21;;;;;;;3.70;1.08;;;;;;;6.98;42.41;96329.91;5065936;28;20227;-68
2023/02/14 06:10:48;;;;;;;0.45;0.45;;;;;;;6.76;41.99;96333.66;5097659;28;20231;-66
2023/02/14 06:13:16;;;;;;;0.95;0.80;;;;;;;6.68;42.65;96336.41;5065370;28;20674;-68
2023/02/14 06:15:42;;;;;;;0.30;0.30;;;;;;;6.76;42.19;96333.66;5064800;28;20214;-68
2023/02/14 06:18:09;;;;;;;0.00;0.00;;;;;;;6.85;42.38;96332.47;5065405;28;20240;-68
2023/02/14 06:20:36;;;;;;;0.28;0.28;;;;;;;7.21;41.97;96336.56;5065299;28;20204;-67
2023/02/14 06:23:03;;;;;;;0.38;0.38;;;;;;;7.00;41.83;96329.69;5066067;28;20200;-68
2023/02/14 06:25:30;;;;;;;1.08;1.00;;;;;;;7.26;43.34;96331.53;5064533;28;20277;-71
2023/02/14 06:27:58;;;;;;;3.10;2.17;;;;;;;7.38;42.40;96342.97;5065372;28;20188;-65
2023/02/14 06:30:25;;;;;;;0.20;0.20;;;;;;;6.96;42.14;96329.28;5052986;28;20201;-67
2023/02/14 06:32:55;;;;;;;0.80;0.63;;;;;;;7.21;42.25;96339.16;5052779;28;20258;-65
2023/02/14 06:35:21;;;;;;;0.05;0.05;;;;;;;7.10;42.04;96320.47;5053568;28;20200;-69
2023/02/14 06:37:49;;;;;;;0.73;0.15;;;;;;;6.95;42.28;96326.88;5069453;28;20228;-72
2023/02/14 06:40:18;;;;;;;0.50;0.50;;;;;;;7.04;42.35;96336.91;5052825;28;20946;-67
2023/02/14 06:42:45;;;;;;;0.32;0.32;;;;;;;7.14;42.05;96337.34;5051704;28;20192;-68
2023/02/14 06:45:12;;;;;;;0.60;0.60;;;;;;;6.98;42.41;96342.13;5051340;28;20210;-69
2023/02/14 06:47:39;;;;;;;0.45;0.45;;;;;;;6.95;42.10;96322.47;5051524;28;20199;-68
2023/02/14 06:50:06;;;;;;;0.20;0.20;;;;;;;6.60;42.88;96333.19;5051506;28;20205;-68
2023/02/14 06:52:33;;;;;;;0.40;0.40;;;;;;;7.21;42.71;96320.91;5052048;28;20200;-66
2023/02/14 06:55:01;;;;;;;1.50;1.25;;;;;;;7.26;41.97;96308.88;5051156;28;20215;-68
2023/02/14 06:57:27;;;;;;;0.43;0.43;;;;;;;7.45;41.44;96317.69;5050014;28;20201;-69
2023/02/14 06:59:54;;;;;;;0.98;0.95;;;;;;;7.58;41.83;96328.13;5051417;28;20243;-69
2023/02/14 07:02:21;;;;;;;0.10;0.10;;;;;;;7.87;41.59;96317.25;5061792;28;20257;-68
2023/02/14 07:04:50;;;;;;;1.58;1.48;;;;;;;7.48;42.05;96318.09;5054464;28;20201;-67
2023/02/14 07:07:17;;;;;;;0.57;0.57;;;;;;;7.52;41.89;96313.28;5050747;28;20208;-68
2023/02/14 07:09:45;;;;;;;1.23;0.45;;;;;;;7.26;42.11;96297.63;5052370;28;20197;-68
2023/02/14 07:12:12;;;;;;;3.90;3.22;;;;;;;7.28;41.59;96285.22;5051556;28;20242;-70
2023/02/14 07:14:39;;;;;;;0.47;0.47;;;;;;;7.40;41.91;96302.66;5056618;28;20921;-68
2023/02/14 07:17:06;;;;;;;0.20;0.20;;;;;;;7.83;41.42;96300.38;5059996;28;20201;-68
2023/02/14 07:19:33;;;;;;;1.25;0.60;;;;;;;7.48;42.58;96309.47;5060152;28;20240;-69
2023/02/14 07:21:59;;;;;;;0.00;0.00;;;;;;;6.93;42.81;96314.03;5052988;28;20231;-69
2023/02/14 07:24:26;;;;;;;0.15;0.15;;;;;;;7.38;42.94;96307.25;5051394;28;20213;-72
2023/02/14 07:26:53;;;;;;;1.20;1.10;;;;;;;7.89;42.42;96312.63;5050828;28;20200;-68
2023/02/14 07:29:20;;;;;;;0.73;0.73;;;;;;;7.52;42.78;96313.28;5051502;28;20196;-69
2023/02/14 07:31:47;;;;;;;0.82;0.82;;;;;;;6.92;44.17;96304.63;5050696;28;20204;-68
2023/02/14 07:34:14;;;;;;;0.45;0.45;;;;;;;7.15;44.54;96307.66;5051754;28;20681;-69
2023/02/14 07:36:42;;;;;;;1.75;1.08;;;;;;;7.07;44.57;96320.88;5051046;28;20197;-68
2023/02/14 07:39:09;;;;;;;0.00;0.00;;;;;;;7.40;44.09;96312.28;5051625;28;20238;-68
2023/02/14 07:41:36;;;;;;;0.20;0.20;;;;;;;6.97;45.01;96315.25;5051386;28;20196;-69
2023/02/14 07:44:08;;;;;;;0.38;0.32;;;;;;;6.75;45.47;96305.97;5053185;28;20815;-67
2023/02/14 07:46:35;;;;;;;0.73;0.73;;;;;;;7.01;45.99;96321.69;5064225;28;20197;-66
2023/02/14 07:49:02;;;;;;;0.20;0.20;;;;;;;7.02;45.60;96322.47;5068382;28;20642;-67
2023/02/14 07:51:29;;;;;;;0.93;0.93;;;;;;;7.35;45.01;96341.56;5067224;28;20258;-68
2023/02/14 07:53:56;;;;;;;0.22;0.22;;;;;;;7.04;45.21;96334.28;5053679;28;20569;-69
2023/02/14 07:56:23;;;;;;;0.43;0.43;;;;;;;7.18;45.61;96342.94;5053107;28;20211;-70
2023/02/14 07:58:49;;;;;;;1.55;1.45;;;;;;;7.42;45.20;96337.16;5052220;28;20547;-68
2023/02/14 08:01:16;;;;;;;0.28;0.28;;;;;;;7.25;45.26;96329.91;5050339;28;20242;-68
2023/02/14 08:03:45;;;;;;;1.27;1.00;;;;;;;7.33;45.60;96346.19;5050742;28;20218;-67
2023/02/14 08:06:12;;;;;;;0.82;0.63;;;;;;;7.00;45.91;96340.94;5049945;28;20204;-67
2023/02/14 08:08:39;;;;;;;2.22;1.27;;;;;;;7.38;45.29;96342.97;5050633;28;20395;-69
2023/02/14 08:11:06;;;;;;;1.23;0.38;;;;;;;7.36;46.02;96361.41;5050393;28;20219;-69
2023/02/14 08:13:33;;;;;;;2.17;0.95;;;;;;;7.17;46.17;96352.56;5050684;28;20216;-68
2023/02/14 08:16:11;;;;;;;0.30;0.30;;;;;;;7.07;46.18;96357.38;5050083;28;20188;-70
2023/02/14 08:18:40;;;;;;;0.70;0.70;;;;;;;7.58;45.72;96354.19;5054439;28;20337;-68
2023/02/14 08:21:09;;;;;;;0.60;0.43;;;;;;;7.86;44.67;96358.22;5052092;28;20283;-69
2023/02/14 08:23:37;;;;;;;1.88;0.90;;;;;;;7.62;45.15;96365.84;5050978;28;20219;-73
2023/02/14 08:26:04;;;;;;;0.68;0.57;;;;;;;7.77;44.94;96358.63;5050426;28;20196;-71
2023/02/14 08:28:31;;;;;;;1.83;1.65;;;;;;;7.66;45.17;96372.28;5051236;28;20202;-69
2023/02/14 08:30:59;;;;;;;1.30;0.85;;;;;;;7.48;45.49;96359.03;5050272;28;20184;-70
2023/02/14 08:33:27;;;;;;;3.13;1.02;;;;;;;7.53;45.63;96348.78;5050213;28;20636;-68
2023/02/14 08:35:54;;;;;;;0.73;0.73;;;;;;;7.11;45.40;96337.75;5049924;28;20192;-69
2023/02/14 08:38:21;;;;;;;0.80;0.80;;;;;;;7.37;45.99;96352.63;5051050;28;20243;-69
2023/02/14 08:40:48;;;;;;;0.30;0.30;;;;;;;7.33;45.73;96345.38;5050649;28;20192;-68
2023/02/14 08:43:15;;;;;;;0.80;0.75;;;;;;;7.08;46.57;96364.19;5050346;28;20200;-69
2023/02/14 08:45:41;;;;;;;0.03;0.03;;;;;;;7.52;45.73;96361.03;5049805;28;20192;-69
2023/02/14 08:48:10;;;;;;;0.52;0.52;;;;;;;7.41;45.55;96358.22;5050074;28;20200;-69
2023/02/14 08:50:38;;;;;;;0.32;0.32;;;;;;;7.72;45.15;96366.25;5049675;28;20231;-69
2023/02/14 08:53:09;;;;;;;0.47;0.47;;;;;;;7.48;45.27;96380.69;5057569;28;20205;-70
2023/02/14 08:55:37;;;;;;;0.15;0.15;;;;;;;7.26;46.27;96366.25;5049620;28;20204;-67
2023/02/14 08:58:05;;;;;;;0.85;0.85;;;;;;;6.93;46.85;96376.56;5049205;28;20192;-71
2023/02/14 09:00:32;;;;;;;0.30;0.30;;;;;;;7.56;45.75;96371.84;5049940;28;20200;-68
2023/02/14 09:02:59;;;;;;;0.52;0.38;;;;;;;7.18;47.33;96375.03;5049235;28;20196;-68
2023/02/14 09:05:26;;;;;;;2.90;1.73;;;;;;;7.17;47.05;96362.22;5049502;28;20217;-68
2023/02/14 09:07:55;;;;;;;0.08;0.08;;;;;;;7.69;45.64;96356.22;5062659;28;20208;-69
2023/02/14 09:10:23;;;;;;;0.47;0.47;;;;;;;7.30;46.14;96353.59;5049202;28;20196;-72
2023/02/14 09:12:50;;;;;;;1.42;1.35;;;;;;;7.92;45.79;96359.19;5048814;28;20196;-67
2023/02/14 09:15:17;;;;;;;0.10;0.10;;;;;;;7.45;46.24;96364.63;5048944;28;20196;-71
2023/02/14 09:17:45;;;;;;;0.52;0.52;;;;;;;7.07;47.13;96341.75;5048980;28;20242;-70
2023/02/14 09:20:14;;;;;;;0.70;0.70;;;;;;;7.19;46.37;96345.34;5049790;28;20699;-69
2023/02/14 09:22:41;;;;;;;0.43;0.43;;;;;;;7.38;46.58;96340.34;5053231;28;20196;-68
2023/02/14 09:25:08;;;;;;;0.30;0.30;;;;;;;7.60;46.24;96333.94;5050313;28;20204;-68
2023/02/14 09:27:35;;;;;;;0.20;0.20;;;;;;;7.27;46.33;96315.69;5049483;28;20234;-70
2023/02/14 09:30:04;;;;;;;0.60;0.60;;;;;;;7.34;46.18;96346.97;5048650;28;20189;-68
2023/02/14 09:32:31;;;;;;;0.25;0.25;;;;;;;6.84;47.61;96354.28;5062231;28;20319;-70
2023/02/14 09:34:59;;;;;;;3.60;2.33;;;;;;;7.44;46.27;96339.56;5048868;28;20662;-69
2023/02/14 09:37:26;;;;;;;1.88;1.17;;;;;;;8.20;44.56;96338.84;5049286;28;20194;-69
2023/02/14 09:39:54;;;;;;;0.47;0.47;;;;;;;7.35;46.63;96328.53;5061080;28;20230;-70
2023/02/14 09:42:43;;;;;;;1.65;0.75;;;;;;;7.21;46.83;96342.53;5051191;28;20192;-69
2023/02/14 09:45:19;;;;;;;0.08;0.08;;;;;;;7.38;46.23;96335.94;5048754;28;20251;-68
2023/02/14 09:47:54;;;;;;;1.23;0.68;;;;;;;7.11;47.20;96337.75;5051425;28;20279;-67
2023/02/14 09:50:55;;;;;;;0.50;0.50;;;;;;;6.60;48.05;96339.22;5049210;28;20258;-72
2023/02/14 09:53:50;;;;;;;0.57;0.57;;;;;;;6.73;46.95;96287.13;5049085;28;20204;-67
2023/02/14 09:56:28;;;;;;;0.65;0.65;;;;;;;6.84;46.95;96330.84;5048683;28;20197;-69
2023/02/14 09:59:10;;;;;;;1.20;1.17;;;;;;;6.84;47.13;96320.44;5048755;28;20235;-69
2023/02/14 10:01:42;;;;;;;0.20;0.20;;;;;;;6.72;47.48;96335.03;5048380;28;20200;-69
2023/02/14 10:04:57;;;;;;;0.77;0.77;;;;;;;7.31;46.79;96321.31;5049385;28;20211;-69
2023/02/14 10:07:38;;;;;;;0.20;0.20;;;;;;;7.09;47.51;96329.31;5049505;28;20604;-70
2023/02/14 10:10:21;;;;;;;0.88;0.77;;;;;;;7.11;47.19;96323.91;5053015;28;20291;-70
2023/02/14 10:13:14;;;;;;;0.00;0.00;;;;;;;6.98;46.96;96326.47;5053824;28;20246;-69
2023/02/14 10:15:44;;;;;;;0.00;0.00;;;;;;;6.73;47.63;96326.22;5053054;28;20564;-68
2023/02/14 10:18:38;;;;;;;0.45;0.45;;;;;;;7.43;45.94;96320.50;5053240;28;20332;-67
2023/02/14 10:21:06;;;;;;;0.00;0.00;;;;;;;7.29;46.80;96312.88;5051315;28;20258;-69
2023/02/14 10:23:39;;;;;;;0.13;0.13;;;;;;;7.41;45.92;96311.28;5052569;28;20204;-69
2023/02/14 10:26:31;;;;;;;0.68;0.68;;;;;;;7.70;45.37;96310.88;5053772;28;20288;-67
2023/02/14 10:29:02;;;;;;;1.10;0.75;;;;;;;7.19;46.38;96298.44;5049358;28;20311;-68
2023/02/14 10:32:00;;;;;;;0.40;0.40;;;;;;;7.67;45.52;96293.00;5052662;28;20200;-69
2023/02/14 10:34:49;;;;;;;0.45;0.45;;;;;;;7.62;45.24;96308.44;5054896;28;20192;-68
2023/02/14 10:37:29;;;;;;;0.45;0.45;;;;;;;7.11;46.73;96301.25;5053599;28;20197;-73
2023/02/14 10:40:32;;;;;;;0.00;0.00;;;;;;;6.92;46.57;96307.22;5051681;28;20235;-70
2023/02/14 10:43:17;;;;;;;0.00;0.00;;;;;;;7.57;45.66;96301.22;5049034;28;20196;-68
2023/02/14 10:45:50;;;;;;;0.25;0.25;;;;;;;7.50;46.09;96295.22;5052255;28;20306;-68
2023/02/14 10:48:38;;;;;;;0.05;0.05;;;;;;;7.34;45.75;96307.84;5054573;28;20228;-68
2023/02/14 10:51:15;;;;;;;0.38;0.38;;;;;;;7.17;46.03;96310.88;5055665;28;20208;-66
2023/02/14 10:53:53;;;;;;;0.25;0.25;;;;;;;7.58;45.18;96302.03;5053364;28;20197;-68
2023/02/14 10:56:29;;;;;;;0.47;0.47;;;;;;;7.37;45.76;96289.22;5052589;28;20224;-69
2023/02/14 10:59:01;;;;;;;0.10;0.10;;;;;;;6.92;46.19;96291.59;5051675;28;20285;-69
2023/02/14 11:01:28;;;;;;;0.00;0.00;;;;;;;7.29;45.44;96286.81;5050490;28;20669;-68
2023/02/14 11:04:07;;;;;;;0.77;0.77;;;;;;;7.15;46.42;96292.00;5051543;28;20311;-68
2023/02/14 11:06:34;;;;;;;0.10;0.10;;;;;;;6.88;46.33;96274.75;5051058;28;20193;-69
2023/02/14 11:09:02;;;;;;;0.73;0.57;;;;;;;7.13;45.70;96296.63;5083657;28;20572;-68
2023/02/14 11:11:29;;;;;;;0.55;0.55;;;;;;;7.30;45.93;96288.41;5063853;28;20745;-68
2023/02/14 11:13:56;;;;;;;0.70;0.65;;;;;;;7.63;44.67;96299.59;5051399;28;20243;-72
2023/02/14 11:16:34;;;;;;;0.10;0.10;;;;;;;7.43;45.41;96299.63;5051351;28;20765;-68
2023/02/14 11:19:07;;;;;;;1.38;0.30;;;;;;;7.40;44.67;96289.63;5050631;28;20240;-69
2023/02/14 11:21:39;;;;;;;0.73;0.73;;;;;;;7.55;44.85;96292.00;5050907;28;20211;-68
2023/02/14 11:24:37;;;;;;;0.22;0.22;;;;;;;6.90;45.15;96298.81;5051334;28;20201;-69
2023/02/14 11:27:10;;;;;;;0.20;0.20;;;;;;;7.52;44.26;96287.22;5046789;28;20231;-68
2023/02/14 11:29:40;;;;;;;0.00;0.00;;;;;;;7.09;45.44;96285.00;5052760;28;20199;-71
2023/02/14 11:32:11;;;;;;;0.10;0.10;;;;;;;7.29;44.81;96268.56;5049808;28;20236;-69
2023/02/14 11:34:44;;;;;;;0.65;0.57;;;;;;;7.19;45.23;96280.19;5051251;28;20192;-70
2023/02/14 11:37:33;;;;;;;1.55;0.52;;;;;;;7.22;44.74;96280.78;5053098;28;20203;-70
2023/02/14 11:40:02;;;;;;;0.20;0.20;;;;;;;7.09;44.76;96274.59;5060973;28;20282;-70
2023/02/14 11:42:35;;;;;;;0.22;0.22;;;;;;;7.27;44.93;96273.97;5051356;28;20261;-69
2023/02/14 11:45:04;;;;;;;0.20;0.20;;;;;;;7.40;44.13;96247.88;5050474;28;20266;-69
2023/02/14 11:47:40;;;;;;;0.17;0.17;;;;;;;7.59;43.27;96251.47;5050315;28;20192;-68
2023/02/14 11:50:22;;;;;;;0.10;0.10;;;;;;;7.48;44.04;96249.50;5050074;28;20252;-67
2023/02/14 11:52:55;;;;;;;1.33;1.02;;;;;;;7.79;43.07;96249.63;5050581;28;20204;-69
2023/02/14 11:55:28;;;;;;;0.17;0.17;;;;;;;7.56;42.77;96231.00;5050564;28;20204;-70
2023/02/14 11:57:56;;;;;;;0.30;0.30;;;;;;;7.49;43.27;96245.88;5051238;28;20612;-68
2023/02/14 12:00:25;;;;;;;0.28;0.28;;;;;;;7.54;42.99;96243.44;5049886;28;20262;-69
2023/02/14 12:02:54;;;;;;;0.82;0.63;;;;;;;7.30;43.60;96231.06;5050590;28;20204;-69
2023/02/14 12:05:47;;;;;;;8.65;1.88;;;;;;;7.21;43.67;96230.44;5050235;28;20994;-69
2023/02/14 12:08:22;;;;;;;0.90;0.90;;;;;;;7.07;43.41;96229.66;5048848;28;20214;-70
2023/02/14 12:11:01;;;;;;;0.17;0.05;;;;;;;7.49;43.11;96227.59;5051187;28;20192;-70
2023/02/14 12:13:29;;;;;;;0.00;0.00;;;;;;;7.37;43.24;96230.06;5056470;28;20243;-70
2023/02/14 12:15:57;;;;;;;0.00;0.00;;;;;;;7.56;43.30;96220.56;5050883;28;20267;-69
2023/02/14 12:18:33;;;;;;;0.28;0.28;;;;;;;7.48;43.04;96228.63;5050548;28;20290;-68